Terminal Aerodrome Forecast
Issued by NWS Wilmington, OH

Current Version | Previous Version | Graphics & Text | Print | Product List | Glossary On
Versions: 1 2 3 4 5 6 7 8 9 10 11 12 13 14 15 16
498
FTUS41 KILN 171603 AAA
TAFDAY
TAF AMD
KDAY 171603Z 1716/1812 27014G23KT P6SM OVC030
     FM171700 28016G26KT P6SM BKN040
     FM172200 30010KT P6SM SCT040
     FM180100 VRB04KT P6SM SCT250
     FM181100 14005KT P6SM BKN050=

USA.gov is the U.S. government's official web portal to all federal, state and local government web resources and services.